createdAt,value
2023-05-02T00:01:56.142Z,2.10
2023-05-02T00:04:58.750Z,1.98
2023-05-02T00:08:01.299Z,1.55
2023-05-02T00:11:03.989Z,1.50
2023-05-02T00:14:06.338Z,2.15
2023-05-02T00:17:08.661Z,1.63
2023-05-02T00:20:12.274Z,1.90
2023-05-02T00:23:14.501Z,1.50
2023-05-02T00:26:16.790Z,1.52
2023-05-02T00:29:19.127Z,1.70
2023-05-02T00:32:21.422Z,1.52
2023-05-02T00:35:23.690Z,1.30
2023-05-02T00:38:25.993Z,1.60
2023-05-02T00:41:28.298Z,1.60
2023-05-02T00:44:30.795Z,1.42
2023-05-02T00:47:33.576Z,1.55
2023-05-02T00:50:37.874Z,1.83
2023-05-02T00:53:41.520Z,1.70
2023-05-02T00:56:44.655Z,1.42
2023-05-02T00:59:47.492Z,1.45
2023-05-02T01:03:05.376Z,1.85
2023-05-02T01:06:30.087Z,1.90
2023-05-02T01:09:41.757Z,1.50
2023-05-02T01:12:54.359Z,1.70
2023-05-02T01:15:59.728Z,1.88
2023-05-02T01:19:05.932Z,1.42
2023-05-02T01:22:11.333Z,1.75
2023-05-02T01:25:37.812Z,1.80
2023-05-02T01:28:58.535Z,1.73
2023-05-02T01:32:03.252Z,1.85
2023-05-02T01:35:06.995Z,1.95
2023-05-02T01:38:13.873Z,1.80
2023-05-02T01:41:16.516Z,2.28
2023-05-02T01:44:21.805Z,1.80
2023-05-02T01:47:25.640Z,1.38
2023-05-02T01:50:29.200Z,1.67
2023-05-02T01:53:35.236Z,1.55
2023-05-02T01:56:39.657Z,1.70
2023-05-02T01:59:44.584Z,1.80
2023-05-02T02:02:48.992Z,2.13
2023-05-02T02:05:53.097Z,1.92
2023-05-02T02:08:55.687Z,1.80
2023-05-02T02:12:06.159Z,2.10
2023-05-02T02:15:28.594Z,2.00
2023-05-02T02:18:37.368Z,1.85
2023-05-02T02:21:42.509Z,1.80
2023-05-02T02:24:47.623Z,2.28
2023-05-02T02:27:50.785Z,1.90
2023-05-02T02:30:53.418Z,1.90
2023-05-02T02:33:56.168Z,2.17
2023-05-02T02:37:10.434Z,2.00
2023-05-02T02:40:31.839Z,2.08
2023-05-02T02:43:44.145Z,2.10
2023-05-02T02:47:24.775Z,2.63
2023-05-02T02:50:38.297Z,2.20
2023-05-02T02:53:58.338Z,2.65
2023-05-02T02:57:18.875Z,2.28
2023-05-02T03:00:25.043Z,2.40
2023-05-02T03:03:29.344Z,2.10
2023-05-02T03:06:32.688Z,2.17
2023-05-02T03:09:46.477Z,2.42
2023-05-02T03:12:56.528Z,2.42
2023-05-02T03:16:31.456Z,2.13
2023-05-02T03:19:35.011Z,1.92
2023-05-02T03:22:37.588Z,2.45
2023-05-02T03:25:39.858Z,2.22
2023-05-02T03:28:46.959Z,2.60
2023-05-02T03:31:54.584Z,2.80
2023-05-02T03:34:58.802Z,2.72
2023-05-02T03:38:06.923Z,2.90
2023-05-02T03:41:09.598Z,2.58
2023-05-02T03:44:12.240Z,2.42
2023-05-02T03:47:14.723Z,2.97
2023-05-02T03:50:19.184Z,2.65
2023-05-02T03:53:23.699Z,2.50
2023-05-02T03:56:31.469Z,2.63
2023-05-02T03:59:48.368Z,2.50
2023-05-02T04:03:03.411Z,2.85
2023-05-02T04:06:07.584Z,2.70
2023-05-02T04:09:10.481Z,2.28
2023-05-02T04:12:22.674Z,2.40
2023-05-02T04:15:27.234Z,2.13
2023-05-02T04:18:31.049Z,2.42
2023-05-02T04:21:37.504Z,2.67
2023-05-02T04:24:41.498Z,2.50
2023-05-02T04:27:44.354Z,3.00
2023-05-02T04:30:50.534Z,3.22
2023-05-02T04:33:57.263Z,3.83
2023-05-02T04:37:02.298Z,3.58
2023-05-02T04:40:06.707Z,3.25
2023-05-02T04:43:09.190Z,3.33
2023-05-02T04:46:18.855Z,3.25
2023-05-02T04:49:21.668Z,3.22
2023-05-02T04:52:24.565Z,3.08
2023-05-02T04:55:26.966Z,3.65
2023-05-02T04:58:29.394Z,2.60
2023-05-02T05:01:38.330Z,2.53
2023-05-02T05:04:42.586Z,2.53
2023-05-02T05:07:45.534Z,2.47
2023-05-02T05:10:48.570Z,2.72
2023-05-02T05:13:50.994Z,2.53
2023-05-02T05:16:54.156Z,2.42
2023-05-02T05:19:57.801Z,2.47
2023-05-02T05:23:00.308Z,2.65
2023-05-02T05:26:11.814Z,2.78
2023-05-02T05:29:18.268Z,3.13
2023-05-02T05:32:22.029Z,2.95
2023-05-02T05:35:26.363Z,3.17
2023-05-02T05:38:28.997Z,3.85
2023-05-02T05:41:33.207Z,3.05
2023-05-02T05:44:39.864Z,3.15
2023-05-02T05:47:43.471Z,3.47
2023-05-02T05:50:46.556Z,3.10
2023-05-02T05:53:48.972Z,3.38
2023-05-02T05:56:51.855Z,2.85
2023-05-02T05:59:56.210Z,3.05
2023-05-02T06:02:59.516Z,3.42
2023-05-02T06:06:07.884Z,3.47
2023-05-02T06:09:13.260Z,4.05
2023-05-02T06:12:16.503Z,3.03
2023-05-02T06:15:25.480Z,3.10
2023-05-02T06:18:28.323Z,3.97
2023-05-02T06:21:31.449Z,3.65
2023-05-02T06:24:33.764Z,3.85
2023-05-02T06:27:36.241Z,3.75
2023-05-02T06:30:38.581Z,3.65
2023-05-02T06:33:41.345Z,3.92
2023-05-02T06:36:43.667Z,3.83
2023-05-02T06:39:45.937Z,4.93
2023-05-02T06:42:48.221Z,4.40
2023-05-02T06:45:54.591Z,5.22
2023-05-02T06:48:56.964Z,4.30
2023-05-02T06:51:59.269Z,4.43
2023-05-02T06:55:01.668Z,4.22
2023-05-02T06:58:04.050Z,3.42
2023-05-02T07:01:06.646Z,4.82
2023-05-02T07:04:09.050Z,3.72
2023-05-02T07:07:11.379Z,5.05
2023-05-02T07:10:13.676Z,4.13
2023-05-02T07:13:15.967Z,5.22
2023-05-02T07:16:18.319Z,4.57
2023-05-02T07:19:20.669Z,4.40
2023-05-02T07:22:23.024Z,3.85
2023-05-02T07:25:25.483Z,4.05
2023-05-02T07:28:27.801Z,3.88
2023-05-02T07:31:30.166Z,3.85
2023-05-02T07:34:32.598Z,4.55
2023-05-02T07:37:35.470Z,3.33
2023-05-02T07:40:38.339Z,3.20
2023-05-02T07:43:44.331Z,3.53
2023-05-02T07:46:47.532Z,3.95
2023-05-02T07:49:54.359Z,3.78
2023-05-02T07:52:56.726Z,3.45
2023-05-02T07:55:58.968Z,3.88
2023-05-02T07:59:01.786Z,3.13
2023-05-02T08:02:05.661Z,3.70
2023-05-02T08:05:08.366Z,3.35
2023-05-02T08:08:11.069Z,3.72
2023-05-02T08:11:13.332Z,3.35
2023-05-02T08:14:16.546Z,3.00
2023-05-02T08:17:18.876Z,3.00
2023-05-02T08:20:22.339Z,6.65
2023-05-02T08:23:24.708Z,4.32
2023-05-02T08:26:28.023Z,4.05
2023-05-02T08:29:31.357Z,3.40
2023-05-02T08:32:33.765Z,6.50
2023-05-02T08:35:36.529Z,3.47
2023-05-02T08:38:38.893Z,4.15
2023-05-02T08:41:41.264Z,3.78
2023-05-02T08:44:44.158Z,3.33
2023-05-02T08:47:47.858Z,3.42
2023-05-02T08:50:52.661Z,5.50
2023-05-02T08:53:55.767Z,4.22
2023-05-02T08:56:59.930Z,4.03
2023-05-02T09:00:02.545Z,4.07
2023-05-02T09:03:29.271Z,3.85
2023-05-02T09:06:33.010Z,3.33
2023-05-02T09:09:35.687Z,3.67
2023-05-02T09:12:38.911Z,3.60
2023-05-02T09:15:41.229Z,2.63
2023-05-02T09:18:45.619Z,6.68
2023-05-02T09:21:47.991Z,3.58
2023-05-02T09:24:57.601Z,3.50
2023-05-02T09:28:01.895Z,2.95
2023-05-02T09:31:12.256Z,3.55
2023-05-02T09:34:17.228Z,3.10
2023-05-02T09:37:35.726Z,3.20
2023-05-02T09:40:38.132Z,2.92
2023-05-02T09:43:41.308Z,2.88
2023-05-02T09:46:45.771Z,3.92
2023-05-02T09:49:49.738Z,3.17
2023-05-02T09:53:06.270Z,3.00
2023-05-02T09:56:08.618Z,2.97
2023-05-02T09:59:17.254Z,3.33
2023-05-02T10:02:21.875Z,3.17
2023-05-02T10:05:24.974Z,4.00
2023-05-02T10:08:28.650Z,3.53
2023-05-02T10:11:32.597Z,4.43
2023-05-02T10:14:40.133Z,3.28
2023-05-02T10:17:48.418Z,3.35
2023-05-02T10:21:06.313Z,3.60
2023-05-02T10:24:09.227Z,3.42
2023-05-02T10:27:11.726Z,3.45
2023-05-02T10:30:14.596Z,4.35
2023-05-02T10:33:19.305Z,3.78
2023-05-02T10:36:23.695Z,3.28
2023-05-02T10:39:29.537Z,3.55
2023-05-02T10:42:35.606Z,3.28
2023-05-02T10:45:37.911Z,2.90
2023-05-02T10:48:40.473Z,4.93
2023-05-02T10:51:43.617Z,2.90
2023-05-02T10:54:46.290Z,3.03
2023-05-02T10:57:58.431Z,4.05
2023-05-02T11:01:29.216Z,3.22
2023-05-02T11:05:04.603Z,4.65
2023-05-02T11:08:18.649Z,2.90
2023-05-02T11:11:42.640Z,2.75
2023-05-02T11:14:47.592Z,3.50
2023-05-02T11:18:06.571Z,3.00
2023-05-02T11:21:29.580Z,3.88
2023-05-02T11:24:44.847Z,4.10
2023-05-02T11:27:49.298Z,4.35
2023-05-02T11:30:51.748Z,3.15
2023-05-02T11:33:57.719Z,5.30
2023-05-02T11:37:00.279Z,3.03
2023-05-02T11:40:13.243Z,3.13
2023-05-02T11:43:18.458Z,3.00
2023-05-02T11:46:21.190Z,3.28
2023-05-02T12:15:59.443Z,2.97
2023-05-02T12:19:02.130Z,3.90
2023-05-02T12:22:05.632Z,3.42
2023-05-02T12:25:08.905Z,3.05
2023-05-02T12:28:11.344Z,3.50
2023-05-02T12:31:13.763Z,3.80
2023-05-02T12:34:32.598Z,3.55
2023-05-02T12:37:34.893Z,4.57
2023-05-02T12:40:37.680Z,3.20
2023-05-02T12:43:51.241Z,3.60
2023-05-02T12:47:02.980Z,2.63
2023-05-02T12:50:05.693Z,4.47
2023-05-02T12:53:08.260Z,2.67
2023-05-02T12:56:11.059Z,2.63
2023-05-02T12:59:30.485Z,2.83
2023-05-02T13:02:33.199Z,2.95
2023-05-02T13:05:36.984Z,2.92
2023-05-02T13:08:39.499Z,3.40
2023-05-02T13:11:42.624Z,2.53
2023-05-02T13:14:45.329Z,2.75
2023-05-02T13:17:48.784Z,2.28
2023-05-02T13:20:51.319Z,2.80
2023-05-02T13:23:55.387Z,2.50
2023-05-02T13:26:57.675Z,2.58
2023-05-02T13:30:06.471Z,2.25
2023-05-02T13:33:10.950Z,2.60
2023-05-02T13:36:13.343Z,2.72
2023-05-02T13:39:15.601Z,2.08
2023-05-02T13:42:18.263Z,2.40
2023-05-02T13:45:21.156Z,2.58
2023-05-02T13:48:23.444Z,2.72
2023-05-02T13:51:25.718Z,3.13
2023-05-02T13:54:28.232Z,2.22
2023-05-02T13:57:30.795Z,2.38
2023-05-02T14:00:33.296Z,2.30
2023-05-02T14:03:36.009Z,2.70
2023-05-02T14:06:38.724Z,3.13
2023-05-02T14:09:41.213Z,2.50
2023-05-02T14:12:43.506Z,2.53
2023-05-02T14:15:45.947Z,1.95
2023-05-02T14:18:50.131Z,2.50
2023-05-02T14:21:52.455Z,2.65
2023-05-02T14:24:54.782Z,3.72
2023-05-02T14:27:57.096Z,2.60
2023-05-02T14:30:59.440Z,2.28
2023-05-02T14:34:01.936Z,2.40
2023-05-02T14:37:04.249Z,2.67
2023-05-02T14:40:07.305Z,2.50
2023-05-02T14:43:09.781Z,2.50
2023-05-02T14:46:12.187Z,2.90
2023-05-02T14:49:14.490Z,2.40
2023-05-02T14:52:16.859Z,4.05
2023-05-02T14:55:19.356Z,2.38
2023-05-02T14:58:21.809Z,2.40
2023-05-02T15:01:24.531Z,2.97
2023-05-02T15:04:27.945Z,2.90
2023-05-02T15:07:30.812Z,2.72
2023-05-02T15:10:37.212Z,2.95
2023-05-02T15:13:39.812Z,2.33
2023-05-02T15:16:42.591Z,2.50
2023-05-02T15:19:45.090Z,2.70
2023-05-02T15:22:47.453Z,2.63
2023-05-02T15:25:49.913Z,2.72
2023-05-02T15:28:52.297Z,2.72
2023-05-02T15:31:54.852Z,3.33
2023-05-02T15:34:57.205Z,2.47
2023-05-02T15:37:59.786Z,2.58
2023-05-02T15:41:02.038Z,2.55
2023-05-02T15:44:04.695Z,3.10
2023-05-02T15:47:06.996Z,3.10
2023-05-02T15:50:13.597Z,2.25
2023-05-02T15:53:17.225Z,2.63
2023-05-02T15:56:21.649Z,2.42
2023-05-02T15:59:24.124Z,2.22
2023-05-02T16:02:26.390Z,2.85
2023-05-02T16:05:28.909Z,2.88
2023-05-02T16:08:31.459Z,3.30
2023-05-02T16:11:34.321Z,2.20
2023-05-02T16:14:37.093Z,2.42
2023-05-02T16:17:39.415Z,2.53
2023-05-02T16:20:42.127Z,2.85
2023-05-02T16:23:44.504Z,2.53
2023-05-02T16:26:46.774Z,2.47
2023-05-02T16:29:49.135Z,2.85
2023-05-02T16:32:51.742Z,2.97
2023-05-02T16:36:01.825Z,2.63
2023-05-02T16:39:04.319Z,2.50
2023-05-02T16:42:06.662Z,2.35
2023-05-02T16:45:09.366Z,2.90
2023-05-02T16:48:11.980Z,2.83
2023-05-02T16:51:14.754Z,2.72
2023-05-02T16:54:20.465Z,3.70
2023-05-02T16:57:23.327Z,4.10
2023-05-02T17:00:25.625Z,3.60
2023-05-02T17:03:29.519Z,3.45
2023-05-02T17:06:32.343Z,3.00
2023-05-02T17:09:37.003Z,3.55
2023-05-02T17:12:39.356Z,3.65
2023-05-02T17:15:42.048Z,4.05
2023-05-02T17:18:44.664Z,5.72
2023-05-02T17:21:47.162Z,4.53
2023-05-02T17:24:52.879Z,3.30
2023-05-02T17:27:55.734Z,3.95
2023-05-02T17:30:59.302Z,5.00
2023-05-02T17:34:01.700Z,3.95
2023-05-02T17:37:03.988Z,3.40
2023-05-02T17:40:07.068Z,3.03
2023-05-02T17:43:09.763Z,3.30
2023-05-02T17:46:12.126Z,2.72
2023-05-02T17:49:14.484Z,3.05
2023-05-02T17:52:17.452Z,2.95
2023-05-02T17:55:20.013Z,3.25
2023-05-02T17:58:22.361Z,3.10
2023-05-02T18:01:24.751Z,5.25
2023-05-02T18:04:27.081Z,4.43
2023-05-02T18:07:30.263Z,4.40
2023-05-02T18:10:42.059Z,6.30
2023-05-02T18:13:45.045Z,5.60
2023-05-02T18:16:48.819Z,5.15
2023-05-02T18:19:51.212Z,4.97
2023-05-02T18:22:57.260Z,4.03
2023-05-02T18:25:59.743Z,4.65
2023-05-02T18:29:02.508Z,3.60
2023-05-02T18:32:08.017Z,4.68
2023-05-02T18:35:13.094Z,3.85
2023-05-02T18:38:16.169Z,5.40
2023-05-02T18:41:18.619Z,5.13
2023-05-02T18:44:21.195Z,4.40
2023-05-02T18:47:24.739Z,4.70
2023-05-02T18:50:27.931Z,5.07
2023-05-02T18:53:31.834Z,4.95
2023-05-02T18:56:34.171Z,4.63
2023-05-02T18:59:40.300Z,5.60
2023-05-02T19:02:54.885Z,5.78
2023-05-02T19:05:57.769Z,4.93
2023-05-02T19:09:06.209Z,5.70
2023-05-02T19:12:08.618Z,5.32
2023-05-02T19:15:11.711Z,4.32
2023-05-02T19:18:14.475Z,4.70
2023-05-02T19:21:17.046Z,4.20
2023-05-02T19:24:21.228Z,4.25
2023-05-02T19:27:24.215Z,3.85
2023-05-02T19:30:29.383Z,3.38
2023-05-02T19:33:37.697Z,3.90
2023-05-02T19:36:40.021Z,3.90
2023-05-02T19:39:45.836Z,3.47
2023-05-02T19:42:48.262Z,3.83
2023-05-02T19:45:50.982Z,3.42
2023-05-02T19:48:53.348Z,3.95
2023-05-02T19:51:55.944Z,4.03
2023-05-02T19:54:58.670Z,4.10
2023-05-02T19:58:01.992Z,4.40
2023-05-02T20:01:04.417Z,4.40
2023-05-02T20:04:06.859Z,4.40
2023-05-02T20:07:09.354Z,4.57
2023-05-02T20:10:11.967Z,4.72
2023-05-02T20:13:14.519Z,4.30
2023-05-02T20:16:16.977Z,5.32
2023-05-02T20:19:20.696Z,4.07
2023-05-02T20:22:25.826Z,4.60
2023-05-02T20:25:28.663Z,4.85
2023-05-02T20:28:30.978Z,4.53
2023-05-02T20:31:33.559Z,4.57
2023-05-02T20:34:35.919Z,4.13
2023-05-02T20:37:38.422Z,4.70
2023-05-02T20:40:42.728Z,4.97
2023-05-02T20:43:46.496Z,4.82
2023-05-02T20:46:48.925Z,5.13
2023-05-02T20:49:51.272Z,4.55
2023-05-02T20:52:54.416Z,4.78
2023-05-02T20:55:56.734Z,3.97
2023-05-02T20:58:59.047Z,4.88
2023-05-02T21:02:01.812Z,4.95
2023-05-02T21:05:04.361Z,5.50
2023-05-02T21:08:06.697Z,5.40
2023-05-02T21:11:16.074Z,4.65
2023-05-02T21:14:18.616Z,4.65
2023-05-02T21:17:21.909Z,4.65
2023-05-02T21:20:24.201Z,5.13
2023-05-02T21:23:26.896Z,3.80
2023-05-02T21:26:29.490Z,3.92
2023-05-02T21:29:31.824Z,4.20
2023-05-02T21:32:34.165Z,3.92
2023-05-02T21:35:37.346Z,3.95
2023-05-02T21:38:39.718Z,5.18
2023-05-02T21:41:42.072Z,4.07
2023-05-02T21:44:44.380Z,3.95
2023-05-02T21:47:46.757Z,4.45
2023-05-02T21:50:49.295Z,4.07
2023-05-02T21:53:52.937Z,3.95
2023-05-02T21:56:55.409Z,4.38
2023-05-02T21:59:57.718Z,4.10
2023-05-02T22:03:07.787Z,3.72
2023-05-02T22:06:11.199Z,4.57
2023-05-02T22:09:13.708Z,4.30
2023-05-02T22:12:16.305Z,4.22
2023-05-02T22:15:18.607Z,4.40
2023-05-02T22:18:21.037Z,4.35
2023-05-02T22:21:23.447Z,3.63
2023-05-02T22:24:26.377Z,4.43
2023-05-02T22:27:28.881Z,3.90
2023-05-02T22:30:31.206Z,3.80
2023-05-02T22:33:33.619Z,3.78
2023-05-02T22:36:36.160Z,4.15
2023-05-02T22:39:38.465Z,4.55
2023-05-02T22:42:40.795Z,4.10
2023-05-02T22:45:43.117Z,4.43
2023-05-02T22:48:45.616Z,4.88
2023-05-02T22:51:48.166Z,4.70
2023-05-02T22:54:50.552Z,4.20
2023-05-02T22:57:52.923Z,4.57
2023-05-02T23:00:55.355Z,4.32
2023-05-02T23:03:57.959Z,4.13
2023-05-02T23:07:00.301Z,4.53
2023-05-02T23:10:02.892Z,4.18
2023-05-02T23:13:06.025Z,4.05
2023-05-02T23:16:08.447Z,4.88
2023-05-02T23:19:11.601Z,4.18
2023-05-02T23:22:13.917Z,4.50
2023-05-02T23:25:16.257Z,4.20
2023-05-02T23:28:20.635Z,4.55
2023-05-02T23:31:23.131Z,4.78
2023-05-02T23:34:26.144Z,4.45
2023-05-02T23:37:28.542Z,5.93
2023-05-02T23:40:31.629Z,4.10
2023-05-02T23:43:33.958Z,4.45
2023-05-02T23:46:36.321Z,5.30
2023-05-02T23:49:38.761Z,4.20
2023-05-02T23:52:41.048Z,4.38
2023-05-02T23:55:43.382Z,4.13
2023-05-02T23:58:46.114Z,5.30
